sensor_id;sensor_type;location;lat;lon;timestamp;temperature;humidity
6724;DHT22;3399;52.530;13.304;2024-03-08T00:00:08;4.50;99.90
6724;DHT22;3399;52.530;13.304;2024-03-08T00:02:41;4.40;99.90
6724;DHT22;3399;52.530;13.304;2024-03-08T00:05:08;4.40;99.90
6724;DHT22;3399;52.530;13.304;2024-03-08T00:07:38;4.30;99.90
6724;DHT22;3399;52.530;13.304;2024-03-08T00:10:04;4.20;99.90
6724;DHT22;3399;52.530;13.304;2024-03-08T00:12:30;4.10;99.90
6724;DHT22;3399;52.530;13.304;2024-03-08T00:14:56;4.10;99.90
6724;DHT22;3399;52.530;13.304;2024-03-08T00:17:21;3.90;99.90
6724;DHT22;3399;52.530;13.304;2024-03-08T00:19:50;3.90;99.90
6724;DHT22;3399;52.530;13.304;2024-03-08T00:22:16;4.00;99.90
6724;DHT22;3399;52.530;13.304;2024-03-08T00:24:42;4.10;99.90
6724;DHT22;3399;52.530;13.304;2024-03-08T00:27:08;4.20;99.90
6724;DHT22;3399;52.530;13.304;2024-03-08T00:29:34;4.20;99.90
6724;DHT22;3399;52.530;13.304;2024-03-08T00:32:00;4.10;99.90
6724;DHT22;3399;52.530;13.304;2024-03-08T00:34:26;4.10;99.90
6724;DHT22;3399;52.530;13.304;2024-03-08T00:36:52;4.10;99.90
6724;DHT22;3399;52.530;13.304;2024-03-08T00:39:18;3.90;99.90
6724;DHT22;3399;52.530;13.304;2024-03-08T00:41:45;3.80;99.90
6724;DHT22;3399;52.530;13.304;2024-03-08T00:44:11;3.60;99.90
6724;DHT22;3399;52.530;13.304;2024-03-08T00:46:36;3.50;99.90
6724;DHT22;3399;52.530;13.304;2024-03-08T00:49:02;3.50;99.90
6724;DHT22;3399;52.530;13.304;2024-03-08T00:51:27;3.40;99.90
6724;DHT22;3399;52.530;13.304;2024-03-08T00:53:53;3.40;99.90
6724;DHT22;3399;52.530;13.304;2024-03-08T00:56:18;3.40;99.90
6724;DHT22;3399;52.530;13.304;2024-03-08T00:58:44;3.30;99.90
6724;DHT22;3399;52.530;13.304;2024-03-08T01:01:09;3.30;99.90
6724;DHT22;3399;52.530;13.304;2024-03-08T01:03:35;3.20;99.90
6724;DHT22;3399;52.530;13.304;2024-03-08T01:06:01;3.30;99.90
6724;DHT22;3399;52.530;13.304;2024-03-08T01:08:28;3.10;99.90
6724;DHT22;3399;52.530;13.304;2024-03-08T01:10:53;3.00;99.90
6724;DHT22;3399;52.530;13.304;2024-03-08T01:13:19;2.90;99.90
6724;DHT22;3399;52.530;13.304;2024-03-08T01:15:45;2.70;99.90
6724;DHT22;3399;52.530;13.304;2024-03-08T01:18:11;2.70;99.90
6724;DHT22;3399;52.530;13.304;2024-03-08T01:20:36;2.70;99.90
6724;DHT22;3399;52.530;13.304;2024-03-08T01:23:02;2.70;99.90
6724;DHT22;3399;52.530;13.304;2024-03-08T01:25:28;2.70;99.90
6724;DHT22;3399;52.530;13.304;2024-03-08T01:27:54;2.60;99.90
6724;DHT22;3399;52.530;13.304;2024-03-08T01:30:20;2.70;99.90
6724;DHT22;3399;52.530;13.304;2024-03-08T01:32:45;2.70;99.90
6724;DHT22;3399;52.530;13.304;2024-03-08T01:35:11;2.70;99.90
6724;DHT22;3399;52.530;13.304;2024-03-08T01:37:36;2.80;99.90
6724;DHT22;3399;52.530;13.304;2024-03-08T01:40:03;2.90;99.90
6724;DHT22;3399;52.530;13.304;2024-03-08T01:42:28;2.90;99.90
6724;DHT22;3399;52.530;13.304;2024-03-08T01:44:54;2.80;99.90
6724;DHT22;3399;52.530;13.304;2024-03-08T01:47:23;2.70;99.90
6724;DHT22;3399;52.530;13.304;2024-03-08T01:49:49;2.70;99.90
6724;DHT22;3399;52.530;13.304;2024-03-08T01:52:16;2.70;99.90
6724;DHT22;3399;52.530;13.304;2024-03-08T01:54:44;2.70;99.90
6724;DHT22;3399;52.530;13.304;2024-03-08T01:57:10;2.70;99.90
6724;DHT22;3399;52.530;13.304;2024-03-08T01:59:36;2.60;99.90
6724;DHT22;3399;52.530;13.304;2024-03-08T02:02:02;2.60;99.90
6724;DHT22;3399;52.530;13.304;2024-03-08T02:04:30;2.70;99.90
6724;DHT22;3399;52.530;13.304;2024-03-08T02:06:58;2.70;99.90
6724;DHT22;3399;52.530;13.304;2024-03-08T02:09:24;2.80;99.90
6724;DHT22;3399;52.530;13.304;2024-03-08T02:11:50;2.80;99.90
6724;DHT22;3399;52.530;13.304;2024-03-08T02:14:17;2.80;99.90
6724;DHT22;3399;52.530;13.304;2024-03-08T02:16:44;2.80;99.90
6724;DHT22;3399;52.530;13.304;2024-03-08T02:19:09;2.80;99.90
6724;DHT22;3399;52.530;13.304;2024-03-08T02:21:35;2.70;99.90
6724;DHT22;3399;52.530;13.304;2024-03-08T02:24:01;2.60;99.90
6724;DHT22;3399;52.530;13.304;2024-03-08T02:26:27;2.60;99.90
6724;DHT22;3399;52.530;13.304;2024-03-08T02:28:53;2.60;99.90
6724;DHT22;3399;52.530;13.304;2024-03-08T02:31:19;2.50;99.90
6724;DHT22;3399;52.530;13.304;2024-03-08T02:33:45;2.40;99.90
6724;DHT22;3399;52.530;13.304;2024-03-08T02:36:13;2.30;99.90
6724;DHT22;3399;52.530;13.304;2024-03-08T02:38:38;2.40;99.90
6724;DHT22;3399;52.530;13.304;2024-03-08T02:41:06;2.30;99.90
6724;DHT22;3399;52.530;13.304;2024-03-08T02:43:31;2.10;99.90
6724;DHT22;3399;52.530;13.304;2024-03-08T02:45:57;2.00;99.90
6724;DHT22;3399;52.530;13.304;2024-03-08T02:48:22;1.90;99.90
6724;DHT22;3399;52.530;13.304;2024-03-08T02:50:48;1.90;99.90
6724;DHT22;3399;52.530;13.304;2024-03-08T02:53:14;1.90;99.90
6724;DHT22;3399;52.530;13.304;2024-03-08T02:55:40;2.00;99.90
6724;DHT22;3399;52.530;13.304;2024-03-08T02:58:06;2.00;99.90
6724;DHT22;3399;52.530;13.304;2024-03-08T03:00:35;1.90;99.90
6724;DHT22;3399;52.530;13.304;2024-03-08T03:03:01;1.90;99.90
6724;DHT22;3399;52.530;13.304;2024-03-08T03:05:28;2.00;99.90
6724;DHT22;3399;52.530;13.304;2024-03-08T03:07:54;1.90;99.90
6724;DHT22;3399;52.530;13.304;2024-03-08T03:10:20;1.90;99.90
6724;DHT22;3399;52.530;13.304;2024-03-08T03:12:47;2.00;99.90
6724;DHT22;3399;52.530;13.304;2024-03-08T03:15:14;2.00;99.90
6724;DHT22;3399;52.530;13.304;2024-03-08T03:17:40;2.10;99.90
6724;DHT22;3399;52.530;13.304;2024-03-08T03:20:09;2.20;99.90
6724;DHT22;3399;52.530;13.304;2024-03-08T03:22:36;2.10;99.90
6724;DHT22;3399;52.530;13.304;2024-03-08T03:25:03;2.10;99.90
6724;DHT22;3399;52.530;13.304;2024-03-08T03:27:29;2.00;99.90
6724;DHT22;3399;52.530;13.304;2024-03-08T03:29:55;2.10;99.90
6724;DHT22;3399;52.530;13.304;2024-03-08T03:32:23;2.20;99.90
6724;DHT22;3399;52.530;13.304;2024-03-08T03:34:49;2.20;99.90
6724;DHT22;3399;52.530;13.304;2024-03-08T03:37:20;2.20;99.90
6724;DHT22;3399;52.530;13.304;2024-03-08T03:39:46;2.20;99.90
6724;DHT22;3399;52.530;13.304;2024-03-08T03:42:18;2.10;99.90
6724;DHT22;3399;52.530;13.304;2024-03-08T03:44:47;2.10;99.90
6724;DHT22;3399;52.530;13.304;2024-03-08T03:47:13;2.10;99.90
6724;DHT22;3399;52.530;13.304;2024-03-08T03:49:42;2.00;99.90
6724;DHT22;3399;52.530;13.304;2024-03-08T03:52:08;2.00;99.90
6724;DHT22;3399;52.530;13.304;2024-03-08T03:54:34;2.10;99.90
6724;DHT22;3399;52.530;13.304;2024-03-08T03:57:00;2.10;99.90
6724;DHT22;3399;52.530;13.304;2024-03-08T03:59:26;2.20;99.90
6724;DHT22;3399;52.530;13.304;2024-03-08T04:01:53;2.10;99.90
6724;DHT22;3399;52.530;13.304;2024-03-08T04:04:18;2.00;99.90
6724;DHT22;3399;52.530;13.304;2024-03-08T04:06:44;1.50;99.90
6724;DHT22;3399;52.530;13.304;2024-03-08T04:09:10;1.50;99.90
6724;DHT22;3399;52.530;13.304;2024-03-08T04:11:36;1.50;99.90
6724;DHT22;3399;52.530;13.304;2024-03-08T04:14:02;1.50;99.90
6724;DHT22;3399;52.530;13.304;2024-03-08T04:16:27;1.60;99.90
6724;DHT22;3399;52.530;13.304;2024-03-08T04:18:53;1.60;99.90
6724;DHT22;3399;52.530;13.304;2024-03-08T04:21:18;1.70;99.90
6724;DHT22;3399;52.530;13.304;2024-03-08T04:23:45;1.70;99.90
6724;DHT22;3399;52.530;13.304;2024-03-08T04:26:10;1.60;99.90
6724;DHT22;3399;52.530;13.304;2024-03-08T04:28:36;1.70;99.90
6724;DHT22;3399;52.530;13.304;2024-03-08T04:31:05;1.70;99.90
6724;DHT22;3399;52.530;13.304;2024-03-08T04:33:32;1.70;99.90
6724;DHT22;3399;52.530;13.304;2024-03-08T04:35:57;1.70;99.90
6724;DHT22;3399;52.530;13.304;2024-03-08T04:38:23;1.60;99.90
6724;DHT22;3399;52.530;13.304;2024-03-08T04:40:50;1.60;99.90
6724;DHT22;3399;52.530;13.304;2024-03-08T04:43:16;1.60;99.90
6724;DHT22;3399;52.530;13.304;2024-03-08T04:45:44;1.70;99.90
6724;DHT22;3399;52.530;13.304;2024-03-08T04:48:09;1.70;99.90
6724;DHT22;3399;52.530;13.304;2024-03-08T04:50:35;1.60;99.90
6724;DHT22;3399;52.530;13.304;2024-03-08T04:53:00;1.60;99.90
6724;DHT22;3399;52.530;13.304;2024-03-08T04:55:26;1.60;99.90
6724;DHT22;3399;52.530;13.304;2024-03-08T04:57:52;1.60;99.90
6724;DHT22;3399;52.530;13.304;2024-03-08T05:00:18;1.60;99.90
6724;DHT22;3399;52.530;13.304;2024-03-08T05:02:44;1.60;99.90
6724;DHT22;3399;52.530;13.304;2024-03-08T05:05:10;1.60;99.90
6724;DHT22;3399;52.530;13.304;2024-03-08T05:07:38;1.80;99.90
6724;DHT22;3399;52.530;13.304;2024-03-08T05:10:05;1.80;99.90
6724;DHT22;3399;52.530;13.304;2024-03-08T05:12:32;1.90;99.90
6724;DHT22;3399;52.530;13.304;2024-03-08T05:14:58;1.80;99.90
6724;DHT22;3399;52.530;13.304;2024-03-08T05:17:23;1.80;99.90
6724;DHT22;3399;52.530;13.304;2024-03-08T05:19:49;1.80;99.90
6724;DHT22;3399;52.530;13.304;2024-03-08T05:22:15;1.70;99.90
6724;DHT22;3399;52.530;13.304;2024-03-08T05:24:41;1.60;99.90
6724;DHT22;3399;52.530;13.304;2024-03-08T05:27:06;1.50;99.90
6724;DHT22;3399;52.530;13.304;2024-03-08T05:29:32;1.50;99.90
6724;DHT22;3399;52.530;13.304;2024-03-08T05:31:58;1.60;99.90
6724;DHT22;3399;52.530;13.304;2024-03-08T05:34:24;1.60;99.90
6724;DHT22;3399;52.530;13.304;2024-03-08T05:36:51;1.50;99.90
6724;DHT22;3399;52.530;13.304;2024-03-08T05:39:17;1.50;99.90
6724;DHT22;3399;52.530;13.304;2024-03-08T05:41:44;1.40;99.90
6724;DHT22;3399;52.530;13.304;2024-03-08T05:44:10;1.40;99.90
6724;DHT22;3399;52.530;13.304;2024-03-08T05:46:36;1.50;99.90
6724;DHT22;3399;52.530;13.304;2024-03-08T05:49:06;1.60;99.90
6724;DHT22;3399;52.530;13.304;2024-03-08T05:51:36;1.50;99.90
6724;DHT22;3399;52.530;13.304;2024-03-08T05:54:03;1.30;99.90
6724;DHT22;3399;52.530;13.304;2024-03-08T05:56:31;1.30;99.90
6724;DHT22;3399;52.530;13.304;2024-03-08T05:58:56;1.30;99.90
6724;DHT22;3399;52.530;13.304;2024-03-08T06:01:24;1.50;99.90
6724;DHT22;3399;52.530;13.304;2024-03-08T06:03:49;1.40;99.90
6724;DHT22;3399;52.530;13.304;2024-03-08T06:06:15;1.50;99.90
6724;DHT22;3399;52.530;13.304;2024-03-08T06:08:41;1.50;99.90
6724;DHT22;3399;52.530;13.304;2024-03-08T06:11:08;1.60;99.90
6724;DHT22;3399;52.530;13.304;2024-03-08T06:13:34;1.60;99.90
6724;DHT22;3399;52.530;13.304;2024-03-08T06:16:00;1.70;99.90
6724;DHT22;3399;52.530;13.304;2024-03-08T06:18:26;1.70;99.90
6724;DHT22;3399;52.530;13.304;2024-03-08T06:20:52;1.80;99.90
6724;DHT22;3399;52.530;13.304;2024-03-08T06:23:18;1.80;99.90
6724;DHT22;3399;52.530;13.304;2024-03-08T06:25:46;1.70;99.90
6724;DHT22;3399;52.530;13.304;2024-03-08T06:28:11;1.70;99.90
6724;DHT22;3399;52.530;13.304;2024-03-08T06:30:37;1.60;99.90
6724;DHT22;3399;52.530;13.304;2024-03-08T06:33:03;1.70;99.90
6724;DHT22;3399;52.530;13.304;2024-03-08T06:35:29;1.80;99.90
6724;DHT22;3399;52.530;13.304;2024-03-08T06:37:57;1.90;99.90
6724;DHT22;3399;52.530;13.304;2024-03-08T06:40:23;2.00;99.90
6724;DHT22;3399;52.530;13.304;2024-03-08T06:42:49;2.00;99.90
6724;DHT22;3399;52.530;13.304;2024-03-08T06:45:14;2.00;99.90
6724;DHT22;3399;52.530;13.304;2024-03-08T06:47:44;2.10;99.90
6724;DHT22;3399;52.530;13.304;2024-03-08T06:50:11;2.20;99.90
6724;DHT22;3399;52.530;13.304;2024-03-08T06:52:36;2.20;99.90
6724;DHT22;3399;52.530;13.304;2024-03-08T06:55:03;2.20;99.90
6724;DHT22;3399;52.530;13.304;2024-03-08T06:57:30;2.20;99.90
6724;DHT22;3399;52.530;13.304;2024-03-08T06:59:56;2.50;99.90
6724;DHT22;3399;52.530;13.304;2024-03-08T07:02:23;2.60;99.90
6724;DHT22;3399;52.530;13.304;2024-03-08T07:04:50;2.70;99.90
6724;DHT22;3399;52.530;13.304;2024-03-08T07:07:16;2.80;99.90
6724;DHT22;3399;52.530;13.304;2024-03-08T07:09:45;2.90;99.90
6724;DHT22;3399;52.530;13.304;2024-03-08T07:12:10;3.00;99.90
6724;DHT22;3399;52.530;13.304;2024-03-08T07:14:39;2.90;99.90
6724;DHT22;3399;52.530;13.304;2024-03-08T07:17:07;2.90;99.90
6724;DHT22;3399;52.530;13.304;2024-03-08T07:19:34;2.80;99.90
6724;DHT22;3399;52.530;13.304;2024-03-08T07:22:00;2.80;99.90
6724;DHT22;3399;52.530;13.304;2024-03-08T07:24:25;2.90;99.90
6724;DHT22;3399;52.530;13.304;2024-03-08T07:27:13;3.10;99.90
6724;DHT22;3399;52.530;13.304;2024-03-08T07:29:39;3.20;99.90
6724;DHT22;3399;52.530;13.304;2024-03-08T07:32:04;3.10;99.90
6724;DHT22;3399;52.530;13.304;2024-03-08T07:34:48;3.20;99.90
6724;DHT22;3399;52.530;13.304;2024-03-08T07:37:16;3.30;99.90
6724;DHT22;3399;52.530;13.304;2024-03-08T07:39:41;3.50;99.90
6724;DHT22;3399;52.530;13.304;2024-03-08T07:42:07;3.60;99.90
6724;DHT22;3399;52.530;13.304;2024-03-08T07:44:32;3.80;99.90
6724;DHT22;3399;52.530;13.304;2024-03-08T07:46:59;3.70;99.90
6724;DHT22;3399;52.530;13.304;2024-03-08T07:49:24;3.80;99.90
6724;DHT22;3399;52.530;13.304;2024-03-08T07:51:50;3.80;99.90
6724;DHT22;3399;52.530;13.304;2024-03-08T07:54:17;3.90;99.90
6724;DHT22;3399;52.530;13.304;2024-03-08T07:56:42;3.80;99.90
6724;DHT22;3399;52.530;13.304;2024-03-08T07:59:08;3.90;99.90
6724;DHT22;3399;52.530;13.304;2024-03-08T08:01:34;3.90;99.90
6724;DHT22;3399;52.530;13.304;2024-03-08T08:03:59;4.00;99.90
6724;DHT22;3399;52.530;13.304;2024-03-08T08:06:27;4.00;99.90
6724;DHT22;3399;52.530;13.304;2024-03-08T08:08:52;4.00;99.90
6724;DHT22;3399;52.530;13.304;2024-03-08T08:11:17;4.10;99.90
6724;DHT22;3399;52.530;13.304;2024-03-08T08:13:43;4.10;99.90
6724;DHT22;3399;52.530;13.304;2024-03-08T08:16:09;4.20;99.90
6724;DHT22;3399;52.530;13.304;2024-03-08T08:18:36;4.30;99.90
6724;DHT22;3399;52.530;13.304;2024-03-08T08:21:02;4.40;99.90
6724;DHT22;3399;52.530;13.304;2024-03-08T08:23:28;4.50;99.90
6724;DHT22;3399;52.530;13.304;2024-03-08T08:25:55;4.50;99.90
6724;DHT22;3399;52.530;13.304;2024-03-08T08:28:21;4.60;99.90
6724;DHT22;3399;52.530;13.304;2024-03-08T08:30:46;4.70;99.90
6724;DHT22;3399;52.530;13.304;2024-03-08T08:33:12;4.70;99.90
6724;DHT22;3399;52.530;13.304;2024-03-08T08:35:38;4.70;99.90
6724;DHT22;3399;52.530;13.304;2024-03-08T08:38:04;4.80;99.90
6724;DHT22;3399;52.530;13.304;2024-03-08T08:40:29;4.80;99.90
6724;DHT22;3399;52.530;13.304;2024-03-08T08:43:00;4.80;99.90
6724;DHT22;3399;52.530;13.304;2024-03-08T08:45:26;4.90;99.90
6724;DHT22;3399;52.530;13.304;2024-03-08T08:47:52;5.00;99.90
6724;DHT22;3399;52.530;13.304;2024-03-08T08:50:18;5.10;99.90
6724;DHT22;3399;52.530;13.304;2024-03-08T08:52:49;5.10;99.90
6724;DHT22;3399;52.530;13.304;2024-03-08T08:55:15;5.10;99.90
6724;DHT22;3399;52.530;13.304;2024-03-08T08:57:41;5.20;99.90
6724;DHT22;3399;52.530;13.304;2024-03-08T09:00:07;5.20;99.90
6724;DHT22;3399;52.530;13.304;2024-03-08T09:02:36;5.20;99.90
6724;DHT22;3399;52.530;13.304;2024-03-08T09:05:03;5.30;99.90
6724;DHT22;3399;52.530;13.304;2024-03-08T09:07:29;5.40;99.80
6724;DHT22;3399;52.530;13.304;2024-03-08T09:09:55;5.50;99.80
6724;DHT22;3399;52.530;13.304;2024-03-08T09:12:23;5.50;99.20
6724;DHT22;3399;52.530;13.304;2024-03-08T09:14:49;5.50;99.80
6724;DHT22;3399;52.530;13.304;2024-03-08T09:17:15;5.60;99.70
6724;DHT22;3399;52.530;13.304;2024-03-08T09:19:46;5.70;99.60
6724;DHT22;3399;52.530;13.304;2024-03-08T09:22:13;5.70;99.00
6724;DHT22;3399;52.530;13.304;2024-03-08T09:24:39;5.80;99.00
6724;DHT22;3399;52.530;13.304;2024-03-08T09:27:05;5.70;99.10
6724;DHT22;3399;52.530;13.304;2024-03-08T09:29:30;5.60;99.30
6724;DHT22;3399;52.530;13.304;2024-03-08T09:31:56;5.60;99.50
6724;DHT22;3399;52.530;13.304;2024-03-08T09:34:21;5.80;99.10
6724;DHT22;3399;52.530;13.304;2024-03-08T09:36:47;5.80;98.80
6724;DHT22;3399;52.530;13.304;2024-03-08T09:39:12;5.80;99.10
6724;DHT22;3399;52.530;13.304;2024-03-08T09:41:43;5.90;99.40
6724;DHT22;3399;52.530;13.304;2024-03-08T09:44:09;6.00;99.00
6724;DHT22;3399;52.530;13.304;2024-03-08T09:46:35;6.00;98.70
6724;DHT22;3399;52.530;13.304;2024-03-08T09:49:01;5.90;98.50
6724;DHT22;3399;52.530;13.304;2024-03-08T09:51:31;5.90;98.60
6724;DHT22;3399;52.530;13.304;2024-03-08T09:53:58;6.00;98.50
6724;DHT22;3399;52.530;13.304;2024-03-08T09:56:24;6.10;97.90
6724;DHT22;3399;52.530;13.304;2024-03-08T09:58:50;6.20;97.90
6724;DHT22;3399;52.530;13.304;2024-03-08T10:01:31;6.20;97.40
6724;DHT22;3399;52.530;13.304;2024-03-08T10:03:57;6.20;97.60
6724;DHT22;3399;52.530;13.304;2024-03-08T10:06:23;6.20;98.00
6724;DHT22;3399;52.530;13.304;2024-03-08T10:08:50;6.30;98.10
6724;DHT22;3399;52.530;13.304;2024-03-08T10:11:17;6.30;97.70
6724;DHT22;3399;52.530;13.304;2024-03-08T10:13:44;6.40;98.20
6724;DHT22;3399;52.530;13.304;2024-03-08T10:16:12;6.40;97.60
6724;DHT22;3399;52.530;13.304;2024-03-08T10:18:37;6.40;97.30
6724;DHT22;3399;52.530;13.304;2024-03-08T10:21:05;6.40;97.70
6724;DHT22;3399;52.530;13.304;2024-03-08T10:23:31;6.50;97.70
6724;DHT22;3399;52.530;13.304;2024-03-08T10:26:09;6.50;97.60
6724;DHT22;3399;52.530;13.304;2024-03-08T10:28:35;6.70;97.70
6724;DHT22;3399;52.530;13.304;2024-03-08T10:31:00;6.80;96.60
6724;DHT22;3399;52.530;13.304;2024-03-08T10:33:26;7.00;96.50
6724;DHT22;3399;52.530;13.304;2024-03-08T10:35:51;7.10;96.80
6724;DHT22;3399;52.530;13.304;2024-03-08T10:38:20;7.10;95.40
6724;DHT22;3399;52.530;13.304;2024-03-08T10:40:48;7.00;95.50
6724;DHT22;3399;52.530;13.304;2024-03-08T10:43:23;6.90;96.20
6724;DHT22;3399;52.530;13.304;2024-03-08T10:46:09;7.10;95.70
6724;DHT22;3399;52.530;13.304;2024-03-08T10:48:43;7.20;95.70
6724;DHT22;3399;52.530;13.304;2024-03-08T10:51:12;7.50;95.00
6724;DHT22;3399;52.530;13.304;2024-03-08T10:53:38;7.40;94.90
6724;DHT22;3399;52.530;13.304;2024-03-08T10:56:07;7.60;94.70
6724;DHT22;3399;52.530;13.304;2024-03-08T10:58:33;8.00;94.60
6724;DHT22;3399;52.530;13.304;2024-03-08T11:01:00;8.20;93.70
6724;DHT22;3399;52.530;13.304;2024-03-08T11:06:08;8.60;91.40
6724;DHT22;3399;52.530;13.304;2024-03-08T11:08:36;8.50;90.50
6724;DHT22;3399;52.530;13.304;2024-03-08T11:11:02;8.60;90.70
6724;DHT22;3399;52.530;13.304;2024-03-08T11:13:41;8.70;90.70
6724;DHT22;3399;52.530;13.304;2024-03-08T11:16:36;8.80;90.00
6724;DHT22;3399;52.530;13.304;2024-03-08T11:19:01;9.10;88.30
6724;DHT22;3399;52.530;13.304;2024-03-08T11:21:33;9.30;90.00
6724;DHT22;3399;52.530;13.304;2024-03-08T11:24:05;9.40;88.30
6724;DHT22;3399;52.530;13.304;2024-03-08T11:26:32;9.30;83.60
6724;DHT22;3399;52.530;13.304;2024-03-08T11:32:16;9.40;84.60
6724;DHT22;3399;52.530;13.304;2024-03-08T11:34:46;9.50;84.50
6724;DHT22;3399;52.530;13.304;2024-03-08T11:37:21;9.60;83.60
6724;DHT22;3399;52.530;13.304;2024-03-08T11:39:52;10.20;80.20
6724;DHT22;3399;52.530;13.304;2024-03-08T11:42:19;10.00;76.90
6724;DHT22;3399;52.530;13.304;2024-03-08T11:44:50;9.80;77.90
6724;DHT22;3399;52.530;13.304;2024-03-08T11:47:16;9.80;80.50
6724;DHT22;3399;52.530;13.304;2024-03-08T11:49:41;10.10;78.70
6724;DHT22;3399;52.530;13.304;2024-03-08T11:52:13;10.30;73.60
6724;DHT22;3399;52.530;13.304;2024-03-08T11:54:39;10.50;72.30
6724;DHT22;3399;52.530;13.304;2024-03-08T11:57:04;10.50;73.50
6724;DHT22;3399;52.530;13.304;2024-03-08T11:59:31;10.70;70.20
6724;DHT22;3399;52.530;13.304;2024-03-08T12:02:06;10.40;71.70
6724;DHT22;3399;52.530;13.304;2024-03-08T12:04:32;10.90;70.00
6724;DHT22;3399;52.530;13.304;2024-03-08T12:07:01;11.10;67.90
6724;DHT22;3399;52.530;13.304;2024-03-08T12:09:35;10.60;70.00
6724;DHT22;3399;52.530;13.304;2024-03-08T12:12:01;11.30;69.10
6724;DHT22;3399;52.530;13.304;2024-03-08T12:14:28;11.50;67.50
6724;DHT22;3399;52.530;13.304;2024-03-08T12:16:54;11.70;66.30
6724;DHT22;3399;52.530;13.304;2024-03-08T12:19:20;11.60;63.00
6724;DHT22;3399;52.530;13.304;2024-03-08T12:21:45;11.70;64.90
6724;DHT22;3399;52.530;13.304;2024-03-08T12:24:15;11.90;64.60
6724;DHT22;3399;52.530;13.304;2024-03-08T12:26:45;12.10;66.10
6724;DHT22;3399;52.530;13.304;2024-03-08T12:31:53;12.70;64.30
6724;DHT22;3399;52.530;13.304;2024-03-08T12:34:19;13.10;61.30
6724;DHT22;3399;52.530;13.304;2024-03-08T12:36:49;12.90;62.40
6724;DHT22;3399;52.530;13.304;2024-03-08T12:39:17;13.10;60.30
6724;DHT22;3399;52.530;13.304;2024-03-08T12:41:47;12.50;60.50
6724;DHT22;3399;52.530;13.304;2024-03-08T12:44:13;12.50;60.80
6724;DHT22;3399;52.530;13.304;2024-03-08T12:46:38;12.30;63.00
6724;DHT22;3399;52.530;13.304;2024-03-08T12:49:07;11.70;63.00
6724;DHT22;3399;52.530;13.304;2024-03-08T12:51:33;12.60;60.60
6724;DHT22;3399;52.530;13.304;2024-03-08T12:53:58;12.50;59.70
6724;DHT22;3399;52.530;13.304;2024-03-08T12:56:31;13.00;57.90
6724;DHT22;3399;52.530;13.304;2024-03-08T12:58:59;12.70;58.80
6724;DHT22;3399;52.530;13.304;2024-03-08T13:01:24;12.80;58.70
6724;DHT22;3399;52.530;13.304;2024-03-08T13:03:50;12.60;58.20
6724;DHT22;3399;52.530;13.304;2024-03-08T13:06:15;11.90;60.00
6724;DHT22;3399;52.530;13.304;2024-03-08T13:08:41;12.30;60.80
6724;DHT22;3399;52.530;13.304;2024-03-08T13:11:07;12.40;61.10
6724;DHT22;3399;52.530;13.304;2024-03-08T13:13:34;12.90;58.60
6724;DHT22;3399;52.530;13.304;2024-03-08T13:16:02;13.20;59.20
6724;DHT22;3399;52.530;13.304;2024-03-08T13:18:28;12.80;56.90
6724;DHT22;3399;52.530;13.304;2024-03-08T13:20:54;12.70;57.60
6724;DHT22;3399;52.530;13.304;2024-03-08T13:23:20;12.90;58.00
6724;DHT22;3399;52.530;13.304;2024-03-08T13:25:46;12.40;57.00
6724;DHT22;3399;52.530;13.304;2024-03-08T13:28:13;11.90;57.20
6724;DHT22;3399;52.530;13.304;2024-03-08T13:30:38;11.90;60.40
6724;DHT22;3399;52.530;13.304;2024-03-08T13:33:04;11.60;59.20
6724;DHT22;3399;52.530;13.304;2024-03-08T13:35:30;12.00;58.10
6724;DHT22;3399;52.530;13.304;2024-03-08T13:37:56;12.00;59.40
6724;DHT22;3399;52.530;13.304;2024-03-08T13:40:21;12.40;59.20
6724;DHT22;3399;52.530;13.304;2024-03-08T13:42:50;12.90;57.30
6724;DHT22;3399;52.530;13.304;2024-03-08T13:45:16;13.20;58.20
6724;DHT22;3399;52.530;13.304;2024-03-08T13:47:53;13.60;55.50
6724;DHT22;3399;52.530;13.304;2024-03-08T13:50:19;13.50;56.10
6724;DHT22;3399;52.530;13.304;2024-03-08T13:52:48;13.50;56.10
6724;DHT22;3399;52.530;13.304;2024-03-08T13:55:17;13.80;54.70
6724;DHT22;3399;52.530;13.304;2024-03-08T13:57:43;14.10;54.40
6724;DHT22;3399;52.530;13.304;2024-03-08T14:00:11;13.70;53.60
6724;DHT22;3399;52.530;13.304;2024-03-08T14:02:36;13.70;53.90
6724;DHT22;3399;52.530;13.304;2024-03-08T14:05:02;13.70;54.10
6724;DHT22;3399;52.530;13.304;2024-03-08T14:07:28;13.90;54.50
6724;DHT22;3399;52.530;13.304;2024-03-08T14:09:54;14.20;53.10
6724;DHT22;3399;52.530;13.304;2024-03-08T14:12:20;14.40;53.40
6724;DHT22;3399;52.530;13.304;2024-03-08T14:14:46;14.20;52.10
6724;DHT22;3399;52.530;13.304;2024-03-08T14:17:11;13.90;52.10
6724;DHT22;3399;52.530;13.304;2024-03-08T14:19:42;13.20;53.30
6724;DHT22;3399;52.530;13.304;2024-03-08T14:22:07;13.20;55.20
6724;DHT22;3399;52.530;13.304;2024-03-08T14:24:36;13.30;54.00
6724;DHT22;3399;52.530;13.304;2024-03-08T14:27:02;12.90;53.90
6724;DHT22;3399;52.530;13.304;2024-03-08T14:29:28;12.40;53.20
6724;DHT22;3399;52.530;13.304;2024-03-08T14:31:56;12.50;54.20
6724;DHT22;3399;52.530;13.304;2024-03-08T14:34:27;12.80;54.80
6724;DHT22;3399;52.530;13.304;2024-03-08T14:36:55;12.80;53.20
6724;DHT22;3399;52.530;13.304;2024-03-08T14:39:20;12.50;54.20
6724;DHT22;3399;52.530;13.304;2024-03-08T14:41:50;12.50;54.30
6724;DHT22;3399;52.530;13.304;2024-03-08T14:44:19;12.60;55.80
6724;DHT22;3399;52.530;13.304;2024-03-08T14:46:44;12.70;55.90
6724;DHT22;3399;52.530;13.304;2024-03-08T14:49:11;12.50;57.90
6724;DHT22;3399;52.530;13.304;2024-03-08T14:51:36;12.60;57.70
6724;DHT22;3399;52.530;13.304;2024-03-08T14:54:02;12.90;54.90
6724;DHT22;3399;52.530;13.304;2024-03-08T14:56:27;12.30;53.90
6724;DHT22;3399;52.530;13.304;2024-03-08T14:58:53;12.10;55.30
6724;DHT22;3399;52.530;13.304;2024-03-08T15:01:19;11.90;57.40
6724;DHT22;3399;52.530;13.304;2024-03-08T15:03:49;12.20;55.60
6724;DHT22;3399;52.530;13.304;2024-03-08T15:06:15;11.70;54.50
6724;DHT22;3399;52.530;13.304;2024-03-08T15:08:45;11.40;56.00
6724;DHT22;3399;52.530;13.304;2024-03-08T15:11:11;10.90;57.60
6724;DHT22;3399;52.530;13.304;2024-03-08T15:13:36;10.40;58.70
6724;DHT22;3399;52.530;13.304;2024-03-08T15:16:10;10.20;59.00
6724;DHT22;3399;52.530;13.304;2024-03-08T15:18:42;10.00;58.50
6724;DHT22;3399;52.530;13.304;2024-03-08T15:21:11;10.00;59.60
6724;DHT22;3399;52.530;13.304;2024-03-08T15:23:37;9.90;59.30
6724;DHT22;3399;52.530;13.304;2024-03-08T15:26:07;9.80;59.00
6724;DHT22;3399;52.530;13.304;2024-03-08T15:28:33;9.80;59.10
6724;DHT22;3399;52.530;13.304;2024-03-08T15:31:06;9.90;58.70
6724;DHT22;3399;52.530;13.304;2024-03-08T15:33:36;9.90;59.50
6724;DHT22;3399;52.530;13.304;2024-03-08T15:36:13;9.90;59.50
6724;DHT22;3399;52.530;13.304;2024-03-08T15:38:41;10.10;57.80
6724;DHT22;3399;52.530;13.304;2024-03-08T15:41:08;10.00;57.60
6724;DHT22;3399;52.530;13.304;2024-03-08T15:43:41;10.00;58.20
6724;DHT22;3399;52.530;13.304;2024-03-08T15:46:10;10.10;57.90
6724;DHT22;3399;52.530;13.304;2024-03-08T15:48:37;10.00;58.00
6724;DHT22;3399;52.530;13.304;2024-03-08T15:51:04;10.00;58.90
6724;DHT22;3399;52.530;13.304;2024-03-08T15:53:36;9.90;59.70
6724;DHT22;3399;52.530;13.304;2024-03-08T15:56:03;9.80;60.20
6724;DHT22;3399;52.530;13.304;2024-03-08T15:58:31;9.80;61.00
6724;DHT22;3399;52.530;13.304;2024-03-08T16:00:57;9.90;59.70
6724;DHT22;3399;52.530;13.304;2024-03-08T16:03:25;9.80;60.80